Date,TemperatureHighF,TemperatureAvgF,TemperatureLowF,DewpointHighF,DewpointAvgF,DewpointLowF,HumidityHigh,HumidityAvg,HumidityLow,PressureMaxIn,PressureMinIn,WindSpeedMaxMPH,WindSpeedAvgMPH,GustSpeedMaxMPH,PrecipitationSumIn
2013-9-1,98,83,67,72,66,63,91,60,33,29.84,29.73,0,0,1,0.00
2013-9-2,94,81,71,74,68,63,86,66,43,29.91,29.77,0,0,1,0.03
2013-9-3,99,82,64,70,65,60,96,62,28,29.94,29.80,2,0,12,0.00
2013-9-4,96,78,68,71,67,62,95,72,38,30.00,29.86,1,0,1,0.45
2013-9-5,94,80,66,75,68,64,98,71,38,30.04,29.93,0,0,1,0.00
2013-9-6,94,81,66,73,67,64,96,67,39,30.02,29.88,0,0,1,0.00
2013-9-7,94,79,66,74,68,64,95,70,39,29.96,29.81,0,0,0,0.00
2013-9-8,92,78,71,72,69,66,95,76,46,29.91,29.81,0,0,0,0.00
2013-9-9,90,76,66,70,67,64,94,76,45,29.93,29.83,10,1,18,0.00
2013-9-10,86,74,69,74,70,68,96,88,60,30.00,29.90,9,2,16,0.76
2013-9-11,89,76,68,74,70,63,97,82,51,30.05,29.92,7,1,12,0.01
2013-9-12,92,77,65,73,65,59,98,72,34,30.02,29.86,9,1,12,0.00
2013-9-13,93,78,66,72,63,57,96,64,31,29.92,29.76,8,1,12,0.00
2013-9-14,92,77,62,70,63,56,96,65,34,29.88,29.77,12,2,14,0.00
2013-9-15,90,78,66,71,67,64,94,72,42,29.95,29.85,9,1,11,0.00
2013-9-16,86,74,67,72,69,65,95,84,58,30.00,29.91,5,0,6,0.08
2013-9-17,87,75,68,72,69,66,97,83,54,30.01,29.88,11,1,36,0.04
2013-9-18,88,76,67,73,69,65,97,80,49,29.96,29.82,13,2,13,0.01
2013-9-19,88,78,71,74,71,68,95,80,56,29.89,29.75,12,2,14,0.05
2013-9-20,80,72,68,73,70,66,97,93,79,29.83,29.73,14,4,22,3.34
2013-9-21,81,70,55,66,60,50,92,74,36,29.91,29.80,15,6,22,0.00
2013-9-22,85,64,49,56,50,45,95,67,25,29.89,29.75,8,2,12,0.00
2013-9-23,89,68,48,57,51,47,97,63,26,29.82,29.71,6,1,9,0.00
2013-9-24,95,73,54,63,57,52,94,62,28,29.89,29.78,7,1,12,0.00
2013-9-25,93,75,60,65,61,57,93,65,34,29.85,29.72,6,1,11,0.00
2013-9-26,89,73,56,71,61,55,96,69,35,29.84,29.75,7,0,13,0.00
2013-9-27,90,78,73,73,71,68,91,79,55,29.83,29.72,14,3,18,0.00
2013-9-28,86,77,68,76,72,66,93,85,65,29.93,29.79,14,3,18,0.16
2013-9-29,76,66,58,65,62,57,95,85,64,30.00,29.89,9,3,14,0.00
2013-9-30,89,69,50,67,57,49,98,72,32,29.94,29.76,8,1,11,0.01